Aérodrome :
LOGIN :

S'inscrire | Disclaimer

   EN    FR    IT 

 










Légende :    VFR   VFR Marginal   IFR   IFR Intensif   IFR Très Intensif
Visi : 
Plafond : 
>= 8 km
>= 3000ft
5 à 8 km
1000 à 3000 ft
1500m à 5 km
500 à 1000 ft
800 à 1500m
200 à 500 ft
< 800m
< 200 ft
Symboles :   Orages  Brouillard  Fortes neiges  Fortes précipitations  Vent > 20 kt
SIGMETs :   Divers  Orages  Givrage  Turbulence  Onde Orograph.  Cendres Volcan.






- Altitude de l'aérodrome : 203 ft
- Code IATA : XMJ


LFBM - Mont-De-Marsan

DERNIER METAR :
  • 061800Z AUTO 29007KT 9999 FEW043 SCT052 OVC110 17/14 Q1009 TEMPO 3000 SHRA SCT025TCU

METARs EXPIRÉS :
  • 061730Z AUTO 31009KT 9999 FEW017 SCT027 BKN033 18/14 Q1009 TEMPO 3000 SHRA SCT025TCU BECMG 25015KT
  • 061700Z AUTO 28010KT 9999 FEW020 BKN027 BKN032 18/14 Q1009 TEMPO 3000 SHRA SCT025TCU
  • 061630Z AUTO 30010KT 9999 FEW028/// OVC052/// ///TCU 19/15 Q1009 TEMPO 3000 SHRA BKN025 BKN030 BKN045
  • 061600Z AUTO 30011KT 260V320 9999 FEW019 BKN024 BKN030 19/14 Q1009 NOSIG
  • 061530Z AUTO 27009KT 9999 SCT024 SCT032 BKN054 20/15 Q1009 NOSIG

TAF TAF LFBM
Valide du 06 à 15h jusqu'au 07 à 15h UTC


061400Z 0615/0715 25015KT 9999 BKN025 BKN030 BKN045
TEMPO 0618/0622 3000 SHRA SCT025TCU
BECMG 0710/0712 35012KT BKN050
TEMPO 0706/0715 26010KT 4000 SHRA SCT030TCU



MET'MAP, la Météo Aéronautique d'un coup d'oeil ! - Copyright ORBIFLY Décembre 2007 - Disclaimer

ORBIFLY MET'MAP TEAM :

Programmation & Développement : Alexandra Zaïnal
Sur une idée originale de : Baudouin d'Aumeries
Assistance à la programmation : Marc-Olivier Méhu
Soutien technique & logistique : Manuel Goepfert

Contact : metmap@orbifly.com




SOURCES & CREDITS :

   NOAA